sensor_id;sensor_type;location;lat;lon;timestamp;P1;durP1;ratioP1;P2;durP2;ratioP2
75320;SDS011;68337;52.196;5.660;2024-01-27T00:01:01;11.20;;;2.45;;
75320;SDS011;68337;52.196;5.660;2024-01-27T00:03:29;11.02;;;2.78;;
75320;SDS011;68337;52.196;5.660;2024-01-27T00:05:55;14.55;;;3.47;;
75320;SDS011;68337;52.196;5.660;2024-01-27T00:08:21;12.43;;;3.78;;
75320;SDS011;68337;52.196;5.660;2024-01-27T00:10:47;10.77;;;3.60;;
75320;SDS011;68337;52.196;5.660;2024-01-27T00:13:13;7.72;;;2.88;;
75320;SDS011;68337;52.196;5.660;2024-01-27T00:15:41;14.63;;;3.50;;
75320;SDS011;68337;52.196;5.660;2024-01-27T00:18:07;7.75;;;3.47;;
75320;SDS011;68337;52.196;5.660;2024-01-27T00:20:36;16.63;;;3.95;;
75320;SDS011;68337;52.196;5.660;2024-01-27T00:23:03;11.80;;;3.67;;
75320;SDS011;68337;52.196;5.660;2024-01-27T00:25:28;16.77;;;4.35;;
75320;SDS011;68337;52.196;5.660;2024-01-27T00:27:54;13.07;;;4.10;;
75320;SDS011;68337;52.196;5.660;2024-01-27T00:30:20;14.40;;;4.38;;
75320;SDS011;68337;52.196;5.660;2024-01-27T00:32:46;9.80;;;3.10;;
75320;SDS011;68337;52.196;5.660;2024-01-27T00:35:11;14.63;;;3.90;;
75320;SDS011;68337;52.196;5.660;2024-01-27T00:37:40;11.00;;;3.65;;
75320;SDS011;68337;52.196;5.660;2024-01-27T00:40:08;15.93;;;3.92;;
75320;SDS011;68337;52.196;5.660;2024-01-27T00:42:34;13.55;;;3.88;;
75320;SDS011;68337;52.196;5.660;2024-01-27T00:45:00;16.30;;;3.72;;
75320;SDS011;68337;52.196;5.660;2024-01-27T00:47:26;12.35;;;3.38;;
75320;SDS011;68337;52.196;5.660;2024-01-27T00:49:52;9.93;;;3.03;;
75320;SDS011;68337;52.196;5.660;2024-01-27T00:52:19;10.73;;;3.60;;
75320;SDS011;68337;52.196;5.660;2024-01-27T00:54:45;11.25;;;4.03;;
75320;SDS011;68337;52.196;5.660;2024-01-27T00:57:11;12.60;;;3.50;;
75320;SDS011;68337;52.196;5.660;2024-01-27T00:59:36;16.42;;;4.10;;
75320;SDS011;68337;52.196;5.660;2024-01-27T01:02:03;14.07;;;4.50;;
75320;SDS011;68337;52.196;5.660;2024-01-27T01:04:28;7.80;;;3.10;;
75320;SDS011;68337;52.196;5.660;2024-01-27T01:06:54;15.27;;;3.47;;
75320;SDS011;68337;52.196;5.660;2024-01-27T01:09:20;10.93;;;3.20;;
75320;SDS011;68337;52.196;5.660;2024-01-27T01:11:45;10.23;;;2.92;;
75320;SDS011;68337;52.196;5.660;2024-01-27T01:14:11;8.93;;;3.42;;
75320;SDS011;68337;52.196;5.660;2024-01-27T01:16:37;8.75;;;3.35;;
75320;SDS011;68337;52.196;5.660;2024-01-27T01:19:03;12.65;;;4.05;;
75320;SDS011;68337;52.196;5.660;2024-01-27T01:21:29;5.82;;;2.80;;
75320;SDS011;68337;52.196;5.660;2024-01-27T01:23:54;14.07;;;3.00;;
75320;SDS011;68337;52.196;5.660;2024-01-27T01:26:20;6.57;;;4.32;;
75320;SDS011;68337;52.196;5.660;2024-01-27T01:28:46;9.63;;;3.88;;
75320;SDS011;68337;52.196;5.660;2024-01-27T01:31:12;13.82;;;3.80;;
75320;SDS011;68337;52.196;5.660;2024-01-27T01:33:37;9.25;;;3.25;;
75320;SDS011;68337;52.196;5.660;2024-01-27T01:36:03;11.88;;;3.20;;
75320;SDS011;68337;52.196;5.660;2024-01-27T01:38:29;14.45;;;3.83;;
75320;SDS011;68337;52.196;5.660;2024-01-27T01:40:54;10.50;;;3.38;;
75320;SDS011;68337;52.196;5.660;2024-01-27T01:43:20;16.35;;;3.83;;
75320;SDS011;68337;52.196;5.660;2024-01-27T01:45:46;5.10;;;3.00;;
75320;SDS011;68337;52.196;5.660;2024-01-27T01:48:12;8.77;;;3.00;;
75320;SDS011;68337;52.196;5.660;2024-01-27T01:50:38;8.18;;;3.17;;
75320;SDS011;68337;52.196;5.660;2024-01-27T01:53:04;9.63;;;3.40;;
75320;SDS011;68337;52.196;5.660;2024-01-27T01:55:31;10.32;;;3.53;;
75320;SDS011;68337;52.196;5.660;2024-01-27T01:57:56;9.63;;;3.90;;
75320;SDS011;68337;52.196;5.660;2024-01-27T02:00:22;8.57;;;2.83;;
75320;SDS011;68337;52.196;5.660;2024-01-27T02:02:48;6.13;;;3.00;;
75320;SDS011;68337;52.196;5.660;2024-01-27T02:05:13;14.32;;;3.72;;
75320;SDS011;68337;52.196;5.660;2024-01-27T02:07:39;11.30;;;3.70;;
75320;SDS011;68337;52.196;5.660;2024-01-27T02:10:06;8.25;;;3.50;;
75320;SDS011;68337;52.196;5.660;2024-01-27T02:12:37;9.25;;;3.42;;
75320;SDS011;68337;52.196;5.660;2024-01-27T02:15:03;12.30;;;3.85;;
75320;SDS011;68337;52.196;5.660;2024-01-27T02:17:29;13.20;;;3.20;;
75320;SDS011;68337;52.196;5.660;2024-01-27T02:19:55;6.80;;;2.95;;
75320;SDS011;68337;52.196;5.660;2024-01-27T02:22:21;11.13;;;3.45;;
75320;SDS011;68337;52.196;5.660;2024-01-27T02:24:46;9.90;;;3.53;;
75320;SDS011;68337;52.196;5.660;2024-01-27T02:27:12;7.70;;;3.33;;
75320;SDS011;68337;52.196;5.660;2024-01-27T02:29:38;12.45;;;3.70;;
75320;SDS011;68337;52.196;5.660;2024-01-27T02:32:03;8.38;;;3.33;;
75320;SDS011;68337;52.196;5.660;2024-01-27T02:34:29;12.73;;;3.78;;
75320;SDS011;68337;52.196;5.660;2024-01-27T02:36:55;6.25;;;2.85;;
75320;SDS011;68337;52.196;5.660;2024-01-27T02:39:21;16.15;;;4.82;;
75320;SDS011;68337;52.196;5.660;2024-01-27T02:41:47;11.82;;;4.00;;
75320;SDS011;68337;52.196;5.660;2024-01-27T02:44:13;9.70;;;3.50;;
75320;SDS011;68337;52.196;5.660;2024-01-27T02:46:38;8.80;;;3.33;;
75320;SDS011;68337;52.196;5.660;2024-01-27T02:49:04;10.18;;;3.35;;
75320;SDS011;68337;52.196;5.660;2024-01-27T02:51:30;7.25;;;3.28;;
75320;SDS011;68337;52.196;5.660;2024-01-27T02:53:55;9.05;;;3.25;;
75320;SDS011;68337;52.196;5.660;2024-01-27T02:56:21;21.85;;;4.70;;
75320;SDS011;68337;52.196;5.660;2024-01-27T02:58:47;10.15;;;3.42;;
75320;SDS011;68337;52.196;5.660;2024-01-27T03:01:12;8.93;;;3.55;;
75320;SDS011;68337;52.196;5.660;2024-01-27T03:03:38;8.07;;;3.20;;
75320;SDS011;68337;52.196;5.660;2024-01-27T03:06:04;8.52;;;3.55;;
75320;SDS011;68337;52.196;5.660;2024-01-27T03:08:29;13.43;;;4.10;;
75320;SDS011;68337;52.196;5.660;2024-01-27T03:10:55;14.30;;;3.58;;
75320;SDS011;68337;52.196;5.660;2024-01-27T03:13:21;15.98;;;3.60;;
75320;SDS011;68337;52.196;5.660;2024-01-27T03:15:46;8.48;;;3.70;;
75320;SDS011;68337;52.196;5.660;2024-01-27T03:18:12;6.75;;;3.63;;
75320;SDS011;68337;52.196;5.660;2024-01-27T03:20:38;12.45;;;3.97;;
75320;SDS011;68337;52.196;5.660;2024-01-27T03:23:03;13.07;;;4.40;;
75320;SDS011;68337;52.196;5.660;2024-01-27T03:25:29;10.60;;;3.80;;
75320;SDS011;68337;52.196;5.660;2024-01-27T03:27:55;13.82;;;3.58;;
75320;SDS011;68337;52.196;5.660;2024-01-27T03:30:21;16.88;;;4.20;;
75320;SDS011;68337;52.196;5.660;2024-01-27T03:32:47;10.15;;;3.17;;
75320;SDS011;68337;52.196;5.660;2024-01-27T03:35:15;14.35;;;3.70;;
75320;SDS011;68337;52.196;5.660;2024-01-27T03:37:41;12.05;;;3.38;;
75320;SDS011;68337;52.196;5.660;2024-01-27T03:40:07;7.75;;;3.55;;
75320;SDS011;68337;52.196;5.660;2024-01-27T03:42:33;9.15;;;3.67;;
75320;SDS011;68337;52.196;5.660;2024-01-27T03:44:59;15.68;;;3.65;;
75320;SDS011;68337;52.196;5.660;2024-01-27T03:47:24;9.05;;;3.67;;
75320;SDS011;68337;52.196;5.660;2024-01-27T03:49:50;16.55;;;4.05;;
75320;SDS011;68337;52.196;5.660;2024-01-27T03:52:16;15.65;;;4.20;;
75320;SDS011;68337;52.196;5.660;2024-01-27T03:54:42;14.80;;;4.03;;
75320;SDS011;68337;52.196;5.660;2024-01-27T03:57:07;14.75;;;3.60;;
75320;SDS011;68337;52.196;5.660;2024-01-27T03:59:33;9.48;;;3.30;;
75320;SDS011;68337;52.196;5.660;2024-01-27T04:01:58;11.18;;;3.30;;
75320;SDS011;68337;52.196;5.660;2024-01-27T04:04:24;18.48;;;4.05;;
75320;SDS011;68337;52.196;5.660;2024-01-27T04:06:50;15.43;;;3.63;;
75320;SDS011;68337;52.196;5.660;2024-01-27T04:09:15;7.40;;;3.20;;
75320;SDS011;68337;52.196;5.660;2024-01-27T04:11:41;16.90;;;3.72;;
75320;SDS011;68337;52.196;5.660;2024-01-27T04:14:07;14.77;;;3.53;;
75320;SDS011;68337;52.196;5.660;2024-01-27T04:16:33;18.00;;;4.70;;
75320;SDS011;68337;52.196;5.660;2024-01-27T04:18:59;13.85;;;4.18;;
75320;SDS011;68337;52.196;5.660;2024-01-27T04:21:25;12.52;;;3.60;;
75320;SDS011;68337;52.196;5.660;2024-01-27T04:23:51;12.85;;;3.70;;
75320;SDS011;68337;52.196;5.660;2024-01-27T04:26:16;6.90;;;3.45;;
75320;SDS011;68337;52.196;5.660;2024-01-27T04:28:42;7.50;;;3.15;;
75320;SDS011;68337;52.196;5.660;2024-01-27T04:31:08;11.10;;;3.47;;
75320;SDS011;68337;52.196;5.660;2024-01-27T04:33:34;11.00;;;3.38;;
75320;SDS011;68337;52.196;5.660;2024-01-27T04:35:59;16.27;;;4.13;;
75320;SDS011;68337;52.196;5.660;2024-01-27T04:38:25;7.35;;;3.25;;
75320;SDS011;68337;52.196;5.660;2024-01-27T04:40:51;10.20;;;3.60;;
75320;SDS011;68337;52.196;5.660;2024-01-27T04:43:18;11.63;;;3.35;;
75320;SDS011;68337;52.196;5.660;2024-01-27T04:45:45;10.95;;;3.75;;
75320;SDS011;68337;52.196;5.660;2024-01-27T04:48:12;11.15;;;3.47;;
75320;SDS011;68337;52.196;5.660;2024-01-27T04:50:38;8.75;;;3.40;;
75320;SDS011;68337;52.196;5.660;2024-01-27T04:53:04;9.07;;;3.30;;
75320;SDS011;68337;52.196;5.660;2024-01-27T04:55:29;9.88;;;3.65;;
75320;SDS011;68337;52.196;5.660;2024-01-27T04:57:55;8.60;;;3.38;;
75320;SDS011;68337;52.196;5.660;2024-01-27T05:00:23;9.05;;;3.22;;
75320;SDS011;68337;52.196;5.660;2024-01-27T05:02:51;12.73;;;3.88;;
75320;SDS011;68337;52.196;5.660;2024-01-27T05:05:17;12.07;;;3.75;;
75320;SDS011;68337;52.196;5.660;2024-01-27T05:07:43;6.82;;;3.45;;
75320;SDS011;68337;52.196;5.660;2024-01-27T05:10:10;12.02;;;4.18;;
75320;SDS011;68337;52.196;5.660;2024-01-27T05:12:37;7.72;;;4.53;;
75320;SDS011;68337;52.196;5.660;2024-01-27T05:15:03;11.13;;;3.72;;
75320;SDS011;68337;52.196;5.660;2024-01-27T05:17:29;8.90;;;3.53;;
75320;SDS011;68337;52.196;5.660;2024-01-27T05:19:55;11.50;;;3.80;;
75320;SDS011;68337;52.196;5.660;2024-01-27T05:22:22;14.25;;;5.47;;
75320;SDS011;68337;52.196;5.660;2024-01-27T05:24:48;10.70;;;4.55;;
75320;SDS011;68337;52.196;5.660;2024-01-27T05:27:14;20.20;;;5.68;;
75320;SDS011;68337;52.196;5.660;2024-01-27T05:29:39;13.80;;;6.13;;
75320;SDS011;68337;52.196;5.660;2024-01-27T05:32:05;12.13;;;5.88;;
75320;SDS011;68337;52.196;5.660;2024-01-27T05:34:31;16.90;;;6.70;;
75320;SDS011;68337;52.196;5.660;2024-01-27T05:36:56;22.52;;;7.85;;
75320;SDS011;68337;52.196;5.660;2024-01-27T05:39:22;15.38;;;7.03;;
75320;SDS011;68337;52.196;5.660;2024-01-27T05:41:48;18.63;;;7.03;;
75320;SDS011;68337;52.196;5.660;2024-01-27T05:44:14;19.83;;;7.65;;
75320;SDS011;68337;52.196;5.660;2024-01-27T05:46:39;22.48;;;9.25;;
75320;SDS011;68337;52.196;5.660;2024-01-27T05:49:05;18.27;;;9.95;;
75320;SDS011;68337;52.196;5.660;2024-01-27T05:51:31;31.58;;;10.30;;
75320;SDS011;68337;52.196;5.660;2024-01-27T05:53:56;22.90;;;10.10;;
75320;SDS011;68337;52.196;5.660;2024-01-27T05:56:22;20.40;;;9.43;;
75320;SDS011;68337;52.196;5.660;2024-01-27T05:58:48;17.20;;;10.05;;
75320;SDS011;68337;52.196;5.660;2024-01-27T06:01:14;19.80;;;9.15;;
75320;SDS011;68337;52.196;5.660;2024-01-27T06:03:42;23.13;;;10.77;;
75320;SDS011;68337;52.196;5.660;2024-01-27T06:06:09;20.92;;;9.50;;
75320;SDS011;68337;52.196;5.660;2024-01-27T06:08:35;24.42;;;10.10;;
75320;SDS011;68337;52.196;5.660;2024-01-27T06:11:01;20.92;;;9.93;;
75320;SDS011;68337;52.196;5.660;2024-01-27T06:13:28;27.65;;;10.75;;
75320;SDS011;68337;52.196;5.660;2024-01-27T06:15:53;22.33;;;8.90;;
75320;SDS011;68337;52.196;5.660;2024-01-27T06:18:19;17.95;;;10.50;;
75320;SDS011;68337;52.196;5.660;2024-01-27T06:20:45;17.65;;;10.43;;
75320;SDS011;68337;52.196;5.660;2024-01-27T06:23:11;18.85;;;9.02;;
75320;SDS011;68337;52.196;5.660;2024-01-27T06:25:37;24.85;;;9.73;;
75320;SDS011;68337;52.196;5.660;2024-01-27T06:28:02;15.40;;;8.50;;
75320;SDS011;68337;52.196;5.660;2024-01-27T06:30:28;16.75;;;8.02;;
75320;SDS011;68337;52.196;5.660;2024-01-27T06:32:54;14.95;;;8.25;;
75320;SDS011;68337;52.196;5.660;2024-01-27T06:35:20;17.27;;;8.57;;
75320;SDS011;68337;52.196;5.660;2024-01-27T06:37:45;17.52;;;7.40;;
75320;SDS011;68337;52.196;5.660;2024-01-27T06:40:12;18.75;;;7.47;;
75320;SDS011;68337;52.196;5.660;2024-01-27T06:42:38;20.50;;;7.63;;
75320;SDS011;68337;52.196;5.660;2024-01-27T06:45:04;18.40;;;8.75;;
75320;SDS011;68337;52.196;5.660;2024-01-27T06:47:30;17.27;;;7.25;;
75320;SDS011;68337;52.196;5.660;2024-01-27T06:49:55;18.17;;;8.63;;
75320;SDS011;68337;52.196;5.660;2024-01-27T06:52:21;14.65;;;7.43;;
75320;SDS011;68337;52.196;5.660;2024-01-27T06:54:47;13.73;;;7.15;;
75320;SDS011;68337;52.196;5.660;2024-01-27T06:57:19;20.80;;;8.18;;
75320;SDS011;68337;52.196;5.660;2024-01-27T06:59:47;18.30;;;7.65;;
75320;SDS011;68337;52.196;5.660;2024-01-27T07:02:19;21.15;;;8.48;;
75320;SDS011;68337;52.196;5.660;2024-01-27T07:04:52;19.85;;;9.98;;
75320;SDS011;68337;52.196;5.660;2024-01-27T07:07:18;19.77;;;7.40;;
75320;SDS011;68337;52.196;5.660;2024-01-27T07:09:48;25.40;;;8.25;;
75320;SDS011;68337;52.196;5.660;2024-01-27T07:12:14;18.30;;;8.05;;
75320;SDS011;68337;52.196;5.660;2024-01-27T07:14:40;21.00;;;8.73;;
75320;SDS011;68337;52.196;5.660;2024-01-27T07:17:06;18.20;;;7.68;;
75320;SDS011;68337;52.196;5.660;2024-01-27T07:19:32;17.92;;;8.15;;
75320;SDS011;68337;52.196;5.660;2024-01-27T07:21:58;15.13;;;7.82;;
75320;SDS011;68337;52.196;5.660;2024-01-27T07:24:25;17.05;;;7.93;;
75320;SDS011;68337;52.196;5.660;2024-01-27T07:26:51;13.52;;;7.50;;
75320;SDS011;68337;52.196;5.660;2024-01-27T07:29:17;15.98;;;8.00;;
75320;SDS011;68337;52.196;5.660;2024-01-27T07:31:42;15.02;;;7.68;;
75320;SDS011;68337;52.196;5.660;2024-01-27T07:34:08;16.63;;;8.27;;
75320;SDS011;68337;52.196;5.660;2024-01-27T07:36:34;18.77;;;7.63;;
75320;SDS011;68337;52.196;5.660;2024-01-27T07:39:00;17.77;;;8.60;;
75320;SDS011;68337;52.196;5.660;2024-01-27T07:41:26;23.25;;;8.88;;
75320;SDS011;68337;52.196;5.660;2024-01-27T07:43:53;17.55;;;7.95;;
75320;SDS011;68337;52.196;5.660;2024-01-27T07:46:19;16.30;;;8.40;;
75320;SDS011;68337;52.196;5.660;2024-01-27T07:48:47;17.25;;;9.50;;
75320;SDS011;68337;52.196;5.660;2024-01-27T07:51:14;20.23;;;7.88;;
75320;SDS011;68337;52.196;5.660;2024-01-27T07:53:40;14.75;;;8.00;;
75320;SDS011;68337;52.196;5.660;2024-01-27T07:56:07;21.75;;;7.75;;
75320;SDS011;68337;52.196;5.660;2024-01-27T07:58:33;22.10;;;9.30;;
75320;SDS011;68337;52.196;5.660;2024-01-27T08:00:59;13.68;;;8.23;;
75320;SDS011;68337;52.196;5.660;2024-01-27T08:03:25;16.55;;;8.77;;
75320;SDS011;68337;52.196;5.660;2024-01-27T08:05:51;16.45;;;8.38;;
75320;SDS011;68337;52.196;5.660;2024-01-27T08:08:17;20.33;;;9.57;;
75320;SDS011;68337;52.196;5.660;2024-01-27T08:10:43;21.83;;;11.68;;
75320;SDS011;68337;52.196;5.660;2024-01-27T08:13:09;18.52;;;10.02;;
75320;SDS011;68337;52.196;5.660;2024-01-27T08:15:35;24.05;;;11.00;;
75320;SDS011;68337;52.196;5.660;2024-01-27T08:18:01;25.13;;;12.68;;
75320;SDS011;68337;52.196;5.660;2024-01-27T08:20:26;29.92;;;13.75;;
75320;SDS011;68337;52.196;5.660;2024-01-27T08:22:52;31.05;;;13.57;;
75320;SDS011;68337;52.196;5.660;2024-01-27T08:25:18;29.15;;;13.63;;
75320;SDS011;68337;52.196;5.660;2024-01-27T08:27:43;28.92;;;15.82;;
75320;SDS011;68337;52.196;5.660;2024-01-27T08:30:09;36.22;;;16.77;;
75320;SDS011;68337;52.196;5.660;2024-01-27T08:32:36;36.70;;;18.38;;
75320;SDS011;68337;52.196;5.660;2024-01-27T08:35:01;34.75;;;18.58;;
75320;SDS011;68337;52.196;5.660;2024-01-27T08:37:27;34.00;;;17.33;;
75320;SDS011;68337;52.196;5.660;2024-01-27T08:39:53;40.22;;;18.08;;
75320;SDS011;68337;52.196;5.660;2024-01-27T08:42:18;40.38;;;18.88;;
75320;SDS011;68337;52.196;5.660;2024-01-27T08:44:44;32.65;;;17.35;;
75320;SDS011;68337;52.196;5.660;2024-01-27T08:47:10;35.00;;;17.25;;
75320;SDS011;68337;52.196;5.660;2024-01-27T08:49:36;37.85;;;16.63;;
75320;SDS011;68337;52.196;5.660;2024-01-27T08:52:01;43.08;;;18.50;;
75320;SDS011;68337;52.196;5.660;2024-01-27T08:54:27;31.63;;;17.13;;
75320;SDS011;68337;52.196;5.660;2024-01-27T08:56:53;36.08;;;17.25;;
75320;SDS011;68337;52.196;5.660;2024-01-27T08:59:19;34.35;;;17.08;;
75320;SDS011;68337;52.196;5.660;2024-01-27T09:01:44;31.08;;;17.05;;
75320;SDS011;68337;52.196;5.660;2024-01-27T09:04:10;51.03;;;17.15;;
75320;SDS011;68337;52.196;5.660;2024-01-27T09:06:36;40.13;;;19.50;;
75320;SDS011;68337;52.196;5.660;2024-01-27T09:09:01;39.47;;;17.48;;
75320;SDS011;68337;52.196;5.660;2024-01-27T09:11:28;28.08;;;16.98;;
75320;SDS011;68337;52.196;5.660;2024-01-27T09:13:55;33.95;;;16.80;;
75320;SDS011;68337;52.196;5.660;2024-01-27T09:16:21;34.30;;;17.35;;
75320;SDS011;68337;52.196;5.660;2024-01-27T09:18:49;37.85;;;17.40;;
75320;SDS011;68337;52.196;5.660;2024-01-27T09:21:15;35.55;;;17.17;;
75320;SDS011;68337;52.196;5.660;2024-01-27T09:23:45;32.38;;;15.55;;
75320;SDS011;68337;52.196;5.660;2024-01-27T09:26:12;29.38;;;15.27;;
75320;SDS011;68337;52.196;5.660;2024-01-27T09:28:39;31.10;;;15.88;;
75320;SDS011;68337;52.196;5.660;2024-01-27T09:31:09;33.03;;;14.25;;
75320;SDS011;68337;52.196;5.660;2024-01-27T09:33:36;34.60;;;16.35;;
75320;SDS011;68337;52.196;5.660;2024-01-27T09:36:02;34.85;;;15.70;;
75320;SDS011;68337;52.196;5.660;2024-01-27T09:38:28;34.63;;;16.10;;
75320;SDS011;68337;52.196;5.660;2024-01-27T09:40:54;34.35;;;17.17;;
75320;SDS011;68337;52.196;5.660;2024-01-27T09:43:20;32.92;;;14.32;;
75320;SDS011;68337;52.196;5.660;2024-01-27T09:45:47;39.40;;;15.20;;
75320;SDS011;68337;52.196;5.660;2024-01-27T09:48:13;25.08;;;12.70;;
75320;SDS011;68337;52.196;5.660;2024-01-27T09:50:40;27.83;;;14.02;;
75320;SDS011;68337;52.196;5.660;2024-01-27T09:53:07;26.10;;;13.00;;
75320;SDS011;68337;52.196;5.660;2024-01-27T09:55:34;26.63;;;12.35;;
75320;SDS011;68337;52.196;5.660;2024-01-27T09:58:00;29.48;;;13.07;;
75320;SDS011;68337;52.196;5.660;2024-01-27T10:00:26;20.75;;;10.93;;
75320;SDS011;68337;52.196;5.660;2024-01-27T10:02:54;22.50;;;11.57;;
75320;SDS011;68337;52.196;5.660;2024-01-27T10:05:21;23.92;;;12.15;;
75320;SDS011;68337;52.196;5.660;2024-01-27T10:07:47;26.45;;;10.73;;
75320;SDS011;68337;52.196;5.660;2024-01-27T10:10:13;21.05;;;11.30;;
75320;SDS011;68337;52.196;5.660;2024-01-27T10:12:40;21.80;;;10.65;;
75320;SDS011;68337;52.196;5.660;2024-01-27T10:15:20;27.63;;;12.00;;
75320;SDS011;68337;52.196;5.660;2024-01-27T10:17:47;28.35;;;11.52;;
75320;SDS011;68337;52.196;5.660;2024-01-27T10:20:13;18.55;;;9.68;;
75320;SDS011;68337;52.196;5.660;2024-01-27T10:22:45;20.50;;;10.27;;
75320;SDS011;68337;52.196;5.660;2024-01-27T10:25:11;17.88;;;9.27;;
75320;SDS011;68337;52.196;5.660;2024-01-27T10:27:37;19.85;;;8.70;;
75320;SDS011;68337;52.196;5.660;2024-01-27T10:30:04;23.83;;;10.07;;
75320;SDS011;68337;52.196;5.660;2024-01-27T10:32:32;21.50;;;8.82;;
75320;SDS011;68337;52.196;5.660;2024-01-27T10:35:01;23.40;;;9.20;;
75320;SDS011;68337;52.196;5.660;2024-01-27T10:37:29;24.33;;;9.02;;
75320;SDS011;68337;52.196;5.660;2024-01-27T10:40:00;18.58;;;7.63;;
75320;SDS011;68337;52.196;5.660;2024-01-27T10:42:30;20.25;;;9.15;;
75320;SDS011;68337;52.196;5.660;2024-01-27T10:44:57;17.38;;;8.65;;
75320;SDS011;68337;52.196;5.660;2024-01-27T10:47:26;24.98;;;8.82;;
75320;SDS011;68337;52.196;5.660;2024-01-27T10:49:54;21.02;;;8.50;;
75320;SDS011;68337;52.196;5.660;2024-01-27T10:52:24;19.80;;;8.38;;
75320;SDS011;68337;52.196;5.660;2024-01-27T10:54:56;14.73;;;7.80;;
75320;SDS011;68337;52.196;5.660;2024-01-27T10:57:32;22.60;;;8.48;;
75320;SDS011;68337;52.196;5.660;2024-01-27T11:00:00;17.42;;;7.43;;
75320;SDS011;68337;52.196;5.660;2024-01-27T11:02:31;18.15;;;8.10;;
75320;SDS011;68337;52.196;5.660;2024-01-27T11:04:59;23.30;;;8.23;;
75320;SDS011;68337;52.196;5.660;2024-01-27T11:07:27;18.90;;;7.60;;
75320;SDS011;68337;52.196;5.660;2024-01-27T11:09:55;19.80;;;6.78;;
75320;SDS011;68337;52.196;5.660;2024-01-27T11:12:21;16.30;;;6.85;;
75320;SDS011;68337;52.196;5.660;2024-01-27T11:14:48;18.02;;;7.88;;
75320;SDS011;68337;52.196;5.660;2024-01-27T11:17:16;14.95;;;6.78;;
75320;SDS011;68337;52.196;5.660;2024-01-27T11:19:44;21.65;;;7.93;;
75320;SDS011;68337;52.196;5.660;2024-01-27T11:24:51;16.42;;;7.10;;
75320;SDS011;68337;52.196;5.660;2024-01-27T11:27:17;25.08;;;7.03;;
75320;SDS011;68337;52.196;5.660;2024-01-27T11:29:46;22.50;;;7.38;;
75320;SDS011;68337;52.196;5.660;2024-01-27T11:32:13;15.20;;;6.13;;
75320;SDS011;68337;52.196;5.660;2024-01-27T11:34:42;13.23;;;6.13;;
75320;SDS011;68337;52.196;5.660;2024-01-27T11:37:10;12.73;;;6.30;;
75320;SDS011;68337;52.196;5.660;2024-01-27T11:39:37;17.75;;;7.07;;
75320;SDS011;68337;52.196;5.660;2024-01-27T11:42:04;18.52;;;7.13;;
75320;SDS011;68337;52.196;5.660;2024-01-27T11:44:33;19.55;;;7.32;;
75320;SDS011;68337;52.196;5.660;2024-01-27T11:47:00;23.38;;;7.07;;
75320;SDS011;68337;52.196;5.660;2024-01-27T11:49:25;21.48;;;6.93;;
75320;SDS011;68337;52.196;5.660;2024-01-27T11:51:52;26.27;;;6.70;;
75320;SDS011;68337;52.196;5.660;2024-01-27T11:54:18;14.32;;;6.10;;
75320;SDS011;68337;52.196;5.660;2024-01-27T11:56:43;17.55;;;6.90;;
75320;SDS011;68337;52.196;5.660;2024-01-27T11:59:10;16.58;;;7.65;;
75320;SDS011;68337;52.196;5.660;2024-01-27T12:01:36;20.38;;;8.77;;
75320;SDS011;68337;52.196;5.660;2024-01-27T12:04:02;16.98;;;6.63;;
75320;SDS011;68337;52.196;5.660;2024-01-27T12:06:29;17.65;;;6.80;;
75320;SDS011;68337;52.196;5.660;2024-01-27T12:08:56;17.58;;;6.70;;
75320;SDS011;68337;52.196;5.660;2024-01-27T12:11:23;17.35;;;6.43;;
75320;SDS011;68337;52.196;5.660;2024-01-27T12:13:50;14.50;;;6.53;;
75320;SDS011;68337;52.196;5.660;2024-01-27T12:16:17;18.80;;;6.00;;
75320;SDS011;68337;52.196;5.660;2024-01-27T12:18:43;17.23;;;6.05;;
75320;SDS011;68337;52.196;5.660;2024-01-27T12:21:10;17.02;;;6.57;;
75320;SDS011;68337;52.196;5.660;2024-01-27T12:23:36;15.18;;;5.90;;
75320;SDS011;68337;52.196;5.660;2024-01-27T12:26:14;9.55;;;5.55;;
75320;SDS011;68337;52.196;5.660;2024-01-27T12:28:39;13.93;;;6.10;;
75320;SDS011;68337;52.196;5.660;2024-01-27T12:31:05;21.30;;;6.30;;
75320;SDS011;68337;52.196;5.660;2024-01-27T12:33:31;15.73;;;6.35;;
75320;SDS011;68337;52.196;5.660;2024-01-27T12:35:59;19.00;;;6.18;;
75320;SDS011;68337;52.196;5.660;2024-01-27T12:38:32;13.70;;;6.00;;
75320;SDS011;68337;52.196;5.660;2024-01-27T12:40:58;16.77;;;5.55;;
75320;SDS011;68337;52.196;5.660;2024-01-27T12:43:24;13.27;;;5.47;;
75320;SDS011;68337;52.196;5.660;2024-01-27T12:45:49;13.48;;;5.00;;
75320;SDS011;68337;52.196;5.660;2024-01-27T12:48:15;15.55;;;5.25;;
75320;SDS011;68337;52.196;5.660;2024-01-27T12:50:41;11.57;;;5.07;;
75320;SDS011;68337;52.196;5.660;2024-01-27T12:53:07;13.07;;;5.03;;
75320;SDS011;68337;52.196;5.660;2024-01-27T12:55:33;11.10;;;4.55;;
75320;SDS011;68337;52.196;5.660;2024-01-27T12:57:58;19.08;;;5.07;;
75320;SDS011;68337;52.196;5.660;2024-01-27T13:00:24;13.98;;;5.25;;
75320;SDS011;68337;52.196;5.660;2024-01-27T13:02:50;10.82;;;4.70;;
75320;SDS011;68337;52.196;5.660;2024-01-27T13:05:16;14.45;;;4.55;;
75320;SDS011;68337;52.196;5.660;2024-01-27T13:07:42;16.98;;;5.40;;
75320;SDS011;68337;52.196;5.660;2024-01-27T13:10:10;14.90;;;5.28;;
75320;SDS011;68337;52.196;5.660;2024-01-27T13:12:35;16.35;;;5.30;;
75320;SDS011;68337;52.196;5.660;2024-01-27T13:15:01;11.60;;;4.95;;
75320;SDS011;68337;52.196;5.660;2024-01-27T13:17:27;16.67;;;5.10;;
75320;SDS011;68337;52.196;5.660;2024-01-27T13:19:53;15.30;;;5.90;;
75320;SDS011;68337;52.196;5.660;2024-01-27T13:22:18;17.58;;;6.05;;
75320;SDS011;68337;52.196;5.660;2024-01-27T13:24:49;14.88;;;4.85;;
75320;SDS011;68337;52.196;5.660;2024-01-27T13:27:14;18.45;;;5.18;;
75320;SDS011;68337;52.196;5.660;2024-01-27T13:29:40;18.23;;;4.80;;
75320;SDS011;68337;52.196;5.660;2024-01-27T13:32:06;15.68;;;5.03;;
75320;SDS011;68337;52.196;5.660;2024-01-27T13:34:32;14.88;;;4.95;;
75320;SDS011;68337;52.196;5.660;2024-01-27T13:36:58;13.00;;;4.30;;
75320;SDS011;68337;52.196;5.660;2024-01-27T13:39:26;16.10;;;4.80;;
75320;SDS011;68337;52.196;5.660;2024-01-27T13:41:51;14.10;;;4.70;;
75320;SDS011;68337;52.196;5.660;2024-01-27T13:44:17;14.02;;;4.22;;
75320;SDS011;68337;52.196;5.660;2024-01-27T13:46:43;11.95;;;5.25;;
75320;SDS011;68337;52.196;5.660;2024-01-27T13:49:08;19.40;;;6.47;;
75320;SDS011;68337;52.196;5.660;2024-01-27T13:51:34;14.68;;;4.75;;
75320;SDS011;68337;52.196;5.660;2024-01-27T13:54:00;14.13;;;4.65;;
75320;SDS011;68337;52.196;5.660;2024-01-27T13:56:26;13.27;;;5.40;;
75320;SDS011;68337;52.196;5.660;2024-01-27T13:58:54;16.70;;;5.38;;
75320;SDS011;68337;52.196;5.660;2024-01-27T14:01:19;17.33;;;5.60;;
75320;SDS011;68337;52.196;5.660;2024-01-27T14:03:45;18.27;;;4.72;;
75320;SDS011;68337;52.196;5.660;2024-01-27T14:06:17;17.15;;;5.43;;
75320;SDS011;68337;52.196;5.660;2024-01-27T14:08:43;25.58;;;5.85;;
75320;SDS011;68337;52.196;5.660;2024-01-27T14:11:09;13.15;;;5.00;;
75320;SDS011;68337;52.196;5.660;2024-01-27T14:13:34;22.35;;;7.50;;
75320;SDS011;68337;52.196;5.660;2024-01-27T14:16:00;12.80;;;5.47;;
75320;SDS011;68337;52.196;5.660;2024-01-27T14:18:26;15.35;;;5.95;;
75320;SDS011;68337;52.196;5.660;2024-01-27T14:20:53;22.05;;;5.35;;
75320;SDS011;68337;52.196;5.660;2024-01-27T14:23:18;12.00;;;4.68;;
75320;SDS011;68337;52.196;5.660;2024-01-27T14:25:44;18.65;;;5.82;;
75320;SDS011;68337;52.196;5.660;2024-01-27T14:28:10;16.63;;;6.15;;
75320;SDS011;68337;52.196;5.660;2024-01-27T14:30:36;15.95;;;5.80;;